Map

Track Data

SID SEASON NUMBER BASIN SUBBASIN NAME ISO_TIME NATURE LAT LON WMO_WIND WMO_PRES WMO_AGENCY TRACK_TYPE DIST2LAND LANDFALL IFLAG USA_AGENCY USA_ATCF_ID USA_LAT USA_LON USA_RECORD USA_STATUS USA_WIND USA_PRES USA_SSHS USA_R34_NE USA_R34_SE USA_R34_SW USA_R34_NW USA_R50_NE USA_R50_SE USA_R50_SW USA_R50_NW USA_R64_NE USA_R64_SE USA_R64_SW USA_R64_NW USA_POCI USA_ROCI USA_RMW USA_EYE TOKYO_LAT TOKYO_LON TOKYO_GRADE TOKYO_WIND TOKYO_PRES TOKYO_R50_DIR TOKYO_R50_LONG TOKYO_R50_SHORT TOKYO_R30_DIR TOKYO_R30_LONG TOKYO_R30_SHORT TOKYO_LAND CMA_LAT CMA_LON CMA_CAT CMA_WIND CMA_PRES HKO_LAT HKO_LON HKO_CAT HKO_WIND HKO_PRES NEWDELHI_LAT NEWDELHI_LON NEWDELHI_GRADE NEWDELHI_WIND NEWDELHI_PRES NEWDELHI_CI NEWDELHI_DP NEWDELHI_POCI REUNION_LAT REUNION_LON REUNION_TYPE REUNION_WIND REUNION_PRES REUNION_TNUM REUNION_CI REUNION_RMW REUNION_R34_NE REUNION_R34_SE REUNION_R34_SW REUNION_R34_NW REUNION_R50_NE REUNION_R50_SE REUNION_R50_SW REUNION_R50_NW REUNION_R64_NE REUNION_R64_SE REUNION_R64_SW REUNION_R64_NW BOM_LAT BOM_LON BOM_TYPE BOM_WIND BOM_PRES BOM_TNUM BOM_CI BOM_RMW BOM_R34_NE BOM_R34_SE BOM_R34_SW BOM_R34_NW BOM_R50_NE BOM_R50_SE BOM_R50_SW BOM_R50_NW BOM_R64_NE BOM_R64_SE BOM_R64_SW BOM_R64_NW BOM_ROCI BOM_POCI BOM_EYE BOM_POS_METHOD BOM_PRES_METHOD NADI_LAT NADI_LON NADI_CAT NADI_WIND NADI_PRES WELLINGTON_LAT WELLINGTON_LON WELLINGTON_WIND WELLINGTON_PRES DS824_LAT DS824_LON DS824_STAGE DS824_WIND DS824_PRES TD9636_LAT TD9636_LON TD9636_STAGE TD9636_WIND TD9636_PRES TD9635_LAT TD9635_LON TD9635_WIND TD9635_PRES TD9635_ROCI NEUMANN_LAT NEUMANN_LON NEUMANN_CLASS NEUMANN_WIND NEUMANN_PRES MLC_LAT MLC_LON MLC_CLASS MLC_WIND MLC_PRES USA_GUST BOM_GUST BOM_GUST_PER REUNION_GUST REUNION_GUST_PER USA_SEAHGT USA_SEARAD_NE USA_SEARAD_SE USA_SEARAD_SW USA_SEARAD_NW STORM_SPEED STORM_DIR
1945305N13133 1945 72 WP MM MARGE 1945-11-01 00:00:00 TS 13.3000 133.400 main 865 835 O________OOO__ jtwc_wp WP241945 13.3000 133.400 35 0 13.3000 133.400 TC 35 13.3000 133.400 2 35 13.3000 133.400 35 1003 120 7 286
1945305N13133 1945 72 WP MM MARGE 1945-11-01 03:00:00 TS 13.4011 133.038 main 824 794 P________PPP__ WP241945 13.3977 133.028 35 0 13.3977 133.028 TC 35 13.4115 133.069 2 35 13.3977 133.028 35 1002 150 7 287
1945305N13133 1945 72 WP MM MARGE 1945-11-01 06:00:00 TS 13.5046 132.713 main 794 775 O________OPO__ jtwc_wp WP241945 13.5000 132.700 35 0 13.5000 132.700 TC 35 13.5183 132.751 2 35 13.5000 132.700 35 1001 180 6 290
1945305N13133 1945 72 WP MM MARGE 1945-11-01 09:00:00 TS 13.6095 132.446 main 764 745 P________PPP__ WP241945 13.6074 132.442 35 0 13.6074 132.442 TC 35 13.6158 132.457 2 35 13.6074 132.442 35 1000 240 5 291
1945305N13133 1945 72 WP MM MARGE 1945-11-01 12:00:00 TS 13.7000 132.200 main 745 713 O________OOO__ jtwc_wp WP241945 13.7000 132.200 35 0 13.7000 132.200 TC 35 13.7000 132.200 2 35 13.7000 132.200 35 999 300 5 286
1945305N13133 1945 72 WP MM MARGE 1945-11-01 15:00:00 TS 13.7549 131.915 main 716 695 P________PPP__ WP241945 13.7500 131.892 35 0 13.7500 131.892 TC 35 13.7694 131.984 2 35 13.7500 131.892 35 998 270 6 281
1945305N13133 1945 72 WP MM MARGE 1945-11-01 18:00:00 TS 13.8085 131.644 main 685 674 O________OPO__ jtwc_wp WP241945 13.8000 131.600 35 0 13.8000 131.600 TC 35 13.8340 131.774 2 35 13.8000 131.600 35 998 240 5 286
1945305N13133 1945 72 WP MM MARGE 1945-11-01 21:00:00 TS 13.8903 131.443 main 667 649 P________PPP__ WP241945 13.8848 131.415 35 0 13.8848 131.415 TC 35 13.9067 131.528 2 35 13.8848 131.415 35 997 210 5 294
1945305N13133 1945 72 WP MM MARGE 1945-11-02 00:00:00 TS 14.0000 131.200 main 649 622 O________OOO__ jtwc_wp WP241945 14.0000 131.200 35 0 14.0000 131.200 TC 35 14.0000 131.200 2 35 14.0000 131.200 35 997 180 6 293
1945305N13133 1945 72 WP MM MARGE 1945-11-02 03:00:00 TS 14.1378 130.844 main 612 580 P________PPP__ WP241945 14.1423 130.875 35 0 14.1423 130.875 TC 35 14.1245 130.752 2 37 14.1423 130.875 35 996 180 9 290
1945305N13133 1945 72 WP MM MARGE 1945-11-02 06:00:00 TS 14.2925 130.355 main 580 517 O________OPO__ jtwc_wp WP241945 14.3000 130.400 35 0 14.3000 130.400 TC 35 14.2701 130.220 2 40 14.3000 130.400 35 996 180 11 286
1945305N13133 1945 72 WP MM MARGE 1945-11-02 09:00:00 TS 14.4453 129.710 main 517 464 P________PPP__ WP241945 14.4502 129.737 40 0 14.4502 129.737 TC 40 14.4305 129.627 2 42 14.4502 129.737 40 996 180 13 283
1945305N13133 1945 72 WP MM MARGE 1945-11-02 12:00:00 TS 14.6000 129.000 main 464 420 O________OOO__ jtwc_wp WP241945 14.6000 129.000 45 0 14.6000 129.000 TC 45 14.6000 129.000 2 45 14.6000 129.000 45 996 180 14 283
1945305N13133 1945 72 WP MM MARGE 1945-11-02 15:00:00 TS 14.7568 128.350 main 420 372 P________PPP__ WP241945 14.7423 128.342 42 0 14.7423 128.342 TC 42 14.8003 128.371 2 43 14.7423 128.342 42 996 180 13 285
1945305N13133 1945 72 WP MM MARGE 1945-11-02 18:00:00 TS 14.9256 127.704 main 372 320 O________OPO__ jtwc_wp WP241945 14.9000 127.700 40 0 14.9000 127.700 TC 40 15.0025 127.716 2 42 14.9000 127.700 40 997 180 13 287
1945305N13133 1945 72 WP MM MARGE 1945-11-02 21:00:00 TS 15.1364 127.040 main 310 266 P________PPP__ WP241945 15.1224 127.035 40 0 15.1224 127.035 TC 40 15.1784 127.053 2 41 15.1224 127.035 40 997 180 13 287
1945305N13133 1945 72 WP MM MARGE 1945-11-03 00:00:00 TS 15.3000 126.400 main 266 225 O________OOO__ jtwc_wp WP241945 15.3000 126.400 40 0 15.3000 126.400 TC 40 15.3000 126.400 2 40 15.3000 126.400 40 998 180 12 280
1945305N13133 1945 72 WP MM MARGE 1945-11-03 03:00:00 TS 15.3359 125.825 main 217 181 P________PPP__ WP241945 15.3371 125.850 40 0 15.3371 125.850 TC 40 15.3324 125.752 2 40 15.3371 125.850 40 998 180 11 270
1945305N13133 1945 72 WP MM MARGE 1945-11-03 06:00:00 TS 15.3025 125.256 main 181 149 O________OPO__ jtwc_wp WP241945 15.3000 125.300 40 0 15.3000 125.300 TC 40 15.3099 125.124 2 40 15.3000 125.300 40 999 180 12 266
1945305N13133 1945 72 WP MM MARGE 1945-11-03 09:00:00 TS 15.2520 124.604 main 149 134 P________PPP__ WP241945 15.2502 124.627 40 0 15.2502 124.627 TC 40 15.2575 124.534 2 40 15.2502 124.627 40 999 210 12 265
1945305N13133 1945 72 WP MM MARGE 1945-11-03 12:00:00 TS 15.2000 124.000 main 134 134 O________OOO__ jtwc_wp WP241945 15.2000 124.000 40 0 15.2000 124.000 TC 40 15.2000 124.000 2 40 15.2000 124.000 40 999 240 10 266
1945305N13133 1945 72 WP MM MARGE 1945-11-03 15:00:00 TS 15.1891 123.556 main 134 116 P________PPP__ WP241945 15.1997 123.563 40 0 15.1997 123.563 TC 40 15.1575 123.535 2 40 15.1997 123.563 40 999 270 8 269
1945305N13133 1945 72 WP MM MARGE 1945-11-03 18:00:00 TS 15.1860 123.185 main 116 100 O________OPO__ jtwc_wp WP241945 15.2000 123.200 40 0 15.2000 123.200 TC 40 15.1300 123.126 2 40 15.2000 123.200 40 1000 300 7 266
1945305N13133 1945 72 WP MM MARGE 1945-11-03 21:00:00 TS 15.1443 122.832 main 100 87 P________PPP__ WP241945 15.1496 122.845 40 0 15.1496 122.845 TC 40 15.1126 122.753 2 40 15.1496 122.845 40 1000 270 8 264
1945305N13133 1945 72 WP MM MARGE 1945-11-04 00:00:00 TS 15.1000 122.400 main 87 34 O________OOO__ jtwc_wp WP241945 15.1000 122.400 40 0 15.1000 122.400 TC 40 15.1000 122.400 2 40 15.1000 122.400 40 1001 240 10 267
1945305N13133 1945 72 WP MM MARGE 1945-11-04 03:00:00 TS 15.0883 121.760 main 34 0 P________P_P__ WP241945 15.0883 121.760 37 0 15.0883 121.760 TC 37 2 15.0883 121.760 37 1001 210 14 270
1945305N13133 1945 72 WP MM MARGE 1945-11-04 06:00:00 TS 15.1000 121.000 main 0 O________O_O__ jtwc_wp WP241945 15.1000 121.000 35 0 15.1000 121.000 TC 35 2 15.1000 121.000 35 1002 180 15 271

Digital Typhoon Data and Search

About IBTrACS Database

This database is a web-friendly format of International Best Track Archive for Climate Stewardship (IBTrACS), a global best track data archive curated by NOAA dating back to 1842.

Updated: 2021-10-21